createdAt,value
2023-04-06T00:01:25.577Z,41.52
2023-04-06T00:03:52.307Z,41.52
2023-04-06T00:06:19.199Z,41.50
2023-04-06T00:08:45.978Z,41.83
2023-04-06T00:11:12.694Z,41.78
2023-04-06T00:13:39.425Z,41.85
2023-04-06T00:16:07.033Z,42.29
2023-04-06T00:18:33.974Z,42.59
2023-04-06T00:21:00.620Z,42.79
2023-04-06T00:23:27.217Z,42.38
2023-04-06T00:25:54.004Z,42.06
2023-04-06T00:28:26.212Z,41.79
2023-04-06T00:30:53.930Z,41.88
2023-04-06T00:33:21.295Z,41.52
2023-04-06T00:35:48.014Z,41.15
2023-04-06T00:38:16.035Z,41.51
2023-04-06T00:40:45.268Z,41.89
2023-04-06T00:43:12.658Z,41.85
2023-04-06T00:45:41.058Z,40.99
2023-04-06T00:48:08.300Z,41.90
2023-04-06T00:50:36.075Z,42.33
2023-04-06T00:53:03.359Z,41.92
2023-04-06T00:55:31.115Z,41.80
2023-04-06T00:58:01.661Z,42.63
2023-04-06T01:00:32.097Z,41.96
2023-04-06T01:03:02.555Z,42.62
2023-04-06T01:05:41.738Z,41.86
2023-04-06T01:08:16.686Z,41.91
2023-04-06T01:10:43.651Z,41.46
2023-04-06T01:13:24.344Z,42.36
2023-04-06T01:15:58.211Z,42.09
2023-04-06T01:18:32.946Z,42.99
2023-04-06T01:21:17.617Z,42.65
2023-04-06T01:24:01.739Z,42.07
2023-04-06T01:26:37.190Z,42.36
2023-04-06T01:29:07.489Z,42.05
2023-04-06T01:31:34.446Z,41.53
2023-04-06T01:34:01.107Z,41.56
2023-04-06T01:36:28.132Z,41.38
2023-04-06T01:39:09.437Z,41.21
2023-04-06T01:41:39.304Z,41.45
2023-04-06T01:44:06.512Z,42.02
2023-04-06T01:46:33.941Z,41.00
2023-04-06T01:49:04.999Z,42.44
2023-04-06T01:51:37.270Z,42.29
2023-04-06T01:54:07.017Z,41.04
2023-04-06T01:56:43.593Z,41.48
2023-04-06T01:59:31.075Z,42.09
2023-04-06T02:02:00.218Z,41.63
2023-04-06T02:04:28.132Z,41.28
2023-04-06T02:07:05.880Z,41.44
2023-04-06T02:09:33.105Z,41.24
2023-04-06T02:12:02.302Z,40.81
2023-04-06T02:14:32.162Z,41.45
2023-04-06T02:17:00.981Z,41.18
2023-04-06T02:19:27.935Z,40.72
2023-04-06T02:21:54.890Z,40.96
2023-04-06T02:24:21.929Z,41.73
2023-04-06T02:26:48.593Z,41.30
2023-04-06T02:29:15.306Z,41.50
2023-04-06T02:31:42.332Z,41.88
2023-04-06T02:34:12.863Z,41.02
2023-04-06T02:36:42.876Z,41.29
2023-04-06T02:39:09.785Z,41.91
2023-04-06T02:41:37.059Z,41.39
2023-04-06T02:44:05.497Z,40.79
2023-04-06T02:46:38.683Z,41.36
2023-04-06T02:49:05.459Z,40.96
2023-04-06T02:51:34.543Z,40.74
2023-04-06T02:54:14.970Z,40.75
2023-04-06T02:56:41.893Z,40.93
2023-04-06T02:59:08.952Z,41.32
2023-04-06T03:01:36.079Z,40.95
2023-04-06T03:04:05.578Z,40.71
2023-04-06T03:06:32.477Z,40.91
2023-04-06T03:09:08.689Z,40.64
2023-04-06T03:11:36.218Z,40.26
2023-04-06T03:14:02.784Z,40.90
2023-04-06T03:16:29.404Z,41.18
2023-04-06T03:18:56.666Z,41.07
2023-04-06T03:21:23.736Z,40.62
2023-04-06T03:23:52.598Z,40.78
2023-04-06T03:26:19.553Z,40.33
2023-04-06T03:28:46.127Z,41.11
2023-04-06T03:31:13.244Z,41.48
2023-04-06T03:33:55.368Z,40.94
2023-04-06T03:36:27.214Z,41.74
2023-04-06T03:38:56.198Z,41.95
2023-04-06T03:41:23.122Z,41.89
2023-04-06T03:43:59.498Z,41.94
2023-04-06T03:46:26.562Z,41.48
2023-04-06T03:48:56.605Z,41.32
2023-04-06T03:51:24.413Z,41.30
2023-04-06T03:53:51.284Z,40.46
2023-04-06T03:56:17.912Z,40.60
2023-04-06T03:58:46.382Z,41.22
2023-04-06T04:01:13.414Z,40.15
2023-04-06T04:03:40.383Z,40.27
2023-04-06T04:06:07.732Z,40.61
2023-04-06T04:08:34.666Z,40.69
2023-04-06T04:11:04.566Z,41.05
2023-04-06T04:13:31.711Z,41.28
2023-04-06T04:15:58.789Z,41.65
2023-04-06T04:18:25.385Z,41.62
2023-04-06T04:20:52.032Z,41.12
2023-04-06T04:23:21.229Z,41.16
2023-04-06T04:25:48.197Z,40.64
2023-04-06T04:28:15.414Z,41.23
2023-04-06T04:30:43.470Z,41.15
2023-04-06T04:33:11.758Z,40.41
2023-04-06T04:35:38.732Z,40.21
2023-04-06T04:38:06.685Z,40.08
2023-04-06T04:40:36.018Z,40.08
2023-04-06T04:43:12.419Z,40.60
2023-04-06T04:45:39.634Z,40.00
2023-04-06T04:48:15.908Z,40.97
2023-04-06T04:50:51.762Z,41.42
2023-04-06T04:53:23.553Z,40.78
2023-04-06T04:55:55.074Z,40.81
2023-04-06T04:58:22.770Z,40.53
2023-04-06T05:00:56.787Z,40.85
2023-04-06T05:03:26.835Z,40.15
2023-04-06T05:05:59.974Z,40.68
2023-04-06T05:08:30.610Z,40.51
2023-04-06T05:10:58.199Z,40.55
2023-04-06T05:13:25.904Z,39.88
2023-04-06T05:15:54.346Z,39.67
2023-04-06T05:18:29.016Z,40.09
2023-04-06T05:20:57.482Z,39.65
2023-04-06T05:23:32.841Z,39.73
2023-04-06T05:26:02.516Z,39.95
2023-04-06T05:28:32.124Z,39.41
2023-04-06T05:31:00.379Z,40.42
2023-04-06T05:33:33.702Z,40.26
2023-04-06T05:36:08.178Z,39.88
2023-04-06T05:38:39.447Z,39.45
2023-04-06T05:41:17.356Z,39.60
2023-04-06T05:43:43.986Z,40.01
2023-04-06T05:46:11.127Z,39.84
2023-04-06T05:48:37.817Z,40.34
2023-04-06T05:51:07.228Z,40.05
2023-04-06T05:53:43.360Z,39.24
2023-04-06T05:56:10.062Z,38.73
2023-04-06T05:58:37.802Z,38.87
2023-04-06T06:01:06.278Z,38.29
2023-04-06T06:03:40.684Z,38.84
2023-04-06T06:06:08.178Z,38.79
2023-04-06T06:08:45.453Z,39.29
2023-04-06T06:11:15.850Z,38.97
2023-04-06T06:13:42.638Z,39.54
2023-04-06T06:16:10.424Z,39.95
2023-04-06T06:18:43.136Z,39.46
2023-04-06T06:21:10.225Z,39.57
2023-04-06T06:23:41.211Z,39.49
2023-04-06T06:26:07.982Z,39.34
2023-04-06T06:28:34.665Z,39.25
2023-04-06T06:31:02.315Z,40.22
2023-04-06T06:33:30.422Z,39.34
2023-04-06T06:35:58.644Z,38.81
2023-04-06T06:38:25.540Z,38.65
2023-04-06T06:40:53.514Z,38.49
2023-04-06T06:43:21.380Z,38.44
2023-04-06T06:45:56.930Z,39.47
2023-04-06T06:48:23.708Z,39.51
2023-04-06T06:50:50.898Z,39.14
2023-04-06T06:53:17.980Z,39.26
2023-04-06T06:55:45.466Z,39.34
2023-04-06T06:58:12.355Z,39.52
2023-04-06T07:00:39.251Z,39.26
2023-04-06T07:03:07.006Z,39.67
2023-04-06T07:05:34.072Z,39.75
2023-04-06T07:08:01.030Z,38.70
2023-04-06T07:10:28.294Z,38.34
2023-04-06T07:12:55.334Z,38.77
2023-04-06T07:15:22.179Z,38.78
2023-04-06T07:17:50.314Z,39.00
2023-04-06T07:20:17.067Z,39.39
2023-04-06T07:22:50.256Z,39.18
2023-04-06T07:25:17.529Z,39.82
2023-04-06T07:27:44.732Z,38.51
2023-04-06T07:30:12.310Z,38.85
2023-04-06T07:32:39.289Z,39.11
2023-04-06T07:35:06.855Z,38.84
2023-04-06T07:37:34.070Z,38.53
2023-04-06T07:40:01.519Z,38.22
2023-04-06T07:42:30.483Z,38.89
2023-04-06T07:44:57.178Z,38.82
2023-04-06T07:47:24.618Z,38.05
2023-04-06T07:49:52.036Z,37.71
2023-04-06T07:52:19.371Z,38.43
2023-04-06T07:54:47.319Z,38.48
2023-04-06T07:57:13.897Z,38.93
2023-04-06T07:59:41.092Z,37.76
2023-04-06T08:02:07.897Z,38.43
2023-04-06T08:04:34.746Z,38.12
2023-04-06T08:07:01.486Z,38.44
2023-04-06T08:09:28.653Z,39.14
2023-04-06T08:11:55.195Z,38.93
2023-04-06T08:14:22.017Z,39.06
2023-04-06T08:16:48.682Z,39.09
2023-04-06T08:19:18.276Z,39.00
2023-04-06T08:21:45.088Z,39.47
2023-04-06T08:24:11.875Z,38.59
2023-04-06T08:26:38.723Z,38.56
2023-04-06T08:29:08.440Z,37.80
2023-04-06T08:31:36.066Z,38.24
2023-04-06T08:34:05.239Z,37.86
2023-04-06T08:36:32.173Z,38.17
2023-04-06T08:39:00.845Z,37.91
2023-04-06T08:41:28.650Z,37.88
2023-04-06T08:44:00.686Z,37.97
2023-04-06T08:46:31.436Z,38.70
2023-04-06T08:49:00.202Z,38.56
2023-04-06T08:51:28.380Z,40.45
2023-04-06T08:53:56.491Z,40.14
2023-04-06T08:56:24.465Z,41.12
2023-04-06T08:58:54.565Z,41.61
2023-04-06T09:01:30.522Z,41.49
2023-04-06T09:04:08.224Z,41.32
2023-04-06T09:06:37.810Z,42.04
2023-04-06T09:09:04.648Z,40.55
2023-04-06T09:11:46.630Z,43.79
2023-04-06T09:14:13.879Z,44.26
2023-04-06T09:16:42.778Z,43.05
2023-04-06T09:19:14.228Z,44.42
2023-04-06T09:21:41.117Z,44.63
2023-04-06T09:24:09.348Z,45.28
2023-04-06T09:26:48.749Z,45.91
2023-04-06T09:29:34.232Z,46.46
2023-04-06T09:32:04.958Z,47.45
2023-04-06T09:34:34.853Z,46.91
2023-04-06T09:37:02.478Z,46.54
2023-04-06T09:39:29.491Z,46.88
2023-04-06T09:41:57.324Z,47.09
2023-04-06T09:44:25.127Z,47.41
2023-04-06T09:47:00.538Z,47.18
2023-04-06T09:49:31.099Z,48.91
2023-04-06T09:52:02.619Z,48.62
2023-04-06T09:54:31.601Z,49.19
2023-04-06T09:57:20.375Z,49.69
2023-04-06T10:00:15.395Z,51.05
2023-04-06T10:03:07.852Z,51.39
2023-04-06T10:05:47.575Z,51.96
2023-04-06T10:08:15.073Z,51.46
2023-04-06T10:10:43.543Z,51.29
2023-04-06T10:13:12.592Z,53.75
2023-04-06T10:16:01.022Z,51.62
2023-04-06T10:18:29.027Z,53.46
2023-04-06T10:21:02.892Z,52.30
2023-04-06T10:23:55.465Z,52.51
2023-04-06T10:26:22.644Z,51.43
2023-04-06T10:28:50.653Z,53.02
2023-04-06T10:31:44.255Z,52.94
2023-04-06T10:34:11.122Z,51.18
2023-04-06T10:36:37.988Z,53.39
2023-04-06T10:39:07.161Z,54.69
2023-04-06T10:41:42.109Z,53.41
2023-04-06T10:44:17.956Z,52.54
2023-04-06T10:46:53.966Z,54.66
2023-04-06T10:49:21.349Z,53.66
2023-04-06T10:51:53.405Z,52.70
2023-04-06T10:54:23.655Z,55.12
2023-04-06T10:56:50.785Z,54.87
2023-04-06T10:59:25.973Z,57.20
2023-04-06T11:01:54.053Z,55.03
2023-04-06T11:04:22.132Z,55.82
2023-04-06T11:06:52.755Z,56.54
2023-04-06T11:09:27.024Z,56.11
2023-04-06T11:11:54.070Z,55.83
2023-04-06T11:14:20.761Z,55.63
2023-04-06T11:16:50.223Z,53.96
2023-04-06T11:19:17.645Z,56.62
2023-04-06T11:21:49.682Z,54.42
2023-04-06T11:24:25.972Z,55.17
2023-04-06T11:26:56.162Z,55.61
2023-04-06T11:29:27.688Z,55.42
2023-04-06T11:32:05.622Z,54.56
2023-04-06T11:34:39.562Z,54.23
2023-04-06T11:37:11.780Z,55.32
2023-04-06T11:39:42.336Z,54.01
2023-04-06T11:42:09.681Z,53.70
2023-04-06T11:44:41.426Z,54.07
2023-04-06T11:47:09.636Z,54.22
2023-04-06T11:49:43.940Z,54.53
2023-04-06T11:52:28.578Z,55.39
2023-04-06T11:54:57.794Z,55.64
2023-04-06T11:57:29.030Z,55.39
2023-04-06T11:59:56.309Z,55.57
2023-04-06T12:02:23.177Z,56.25
2023-04-06T12:04:49.946Z,54.03
2023-04-06T12:07:16.748Z,57.05
2023-04-06T12:09:44.171Z,55.92
2023-04-06T12:12:11.149Z,57.16
2023-04-06T12:14:37.908Z,55.84
2023-04-06T12:17:04.483Z,57.14
2023-04-06T12:19:32.505Z,57.78
2023-04-06T12:21:59.949Z,57.47
2023-04-06T12:24:26.688Z,57.36
2023-04-06T12:27:02.732Z,58.60
2023-04-06T12:29:35.941Z,58.46
2023-04-06T12:32:03.110Z,57.79
2023-04-06T12:34:30.201Z,57.82
2023-04-06T12:36:57.238Z,57.59
2023-04-06T12:39:24.717Z,57.21
2023-04-06T12:41:51.459Z,57.49
2023-04-06T12:44:18.558Z,57.53
2023-04-06T12:46:46.188Z,57.05
2023-04-06T12:49:12.860Z,56.33
2023-04-06T12:51:39.572Z,58.78
2023-04-06T12:54:07.821Z,58.20
2023-04-06T12:56:34.393Z,60.73
2023-04-06T12:59:01.613Z,60.32
2023-04-06T13:01:29.299Z,60.33
2023-04-06T13:03:57.557Z,59.10
2023-04-06T13:06:28.217Z,58.70
2023-04-06T13:08:55.684Z,57.97
2023-04-06T13:11:26.269Z,60.69
2023-04-06T13:13:54.401Z,60.88
2023-04-06T13:16:21.668Z,61.24
2023-04-06T13:18:48.734Z,60.96
2023-04-06T13:21:17.334Z,59.32
2023-04-06T13:23:44.797Z,60.63
2023-04-06T13:26:14.362Z,60.38
2023-04-06T13:28:41.716Z,61.02
2023-04-06T13:31:09.396Z,61.17
2023-04-06T13:33:36.605Z,59.80
2023-04-06T13:36:04.181Z,59.44
2023-04-06T13:38:31.481Z,61.39
2023-04-06T13:40:58.610Z,59.85
2023-04-06T13:43:27.321Z,60.87
2023-04-06T13:45:56.799Z,60.99
2023-04-06T13:48:23.938Z,61.07
2023-04-06T13:50:51.076Z,60.32
2023-04-06T13:53:20.654Z,60.01
2023-04-06T13:55:54.279Z,59.54
2023-04-06T13:58:20.987Z,60.29
2023-04-06T14:00:47.863Z,60.98
2023-04-06T14:03:15.052Z,61.61
2023-04-06T14:05:41.674Z,64.80
2023-04-06T14:08:08.249Z,62.32
2023-04-06T14:10:43.090Z,62.36
2023-04-06T14:13:10.524Z,62.51
2023-04-06T14:15:37.730Z,63.32
2023-04-06T14:18:05.099Z,64.56
2023-04-06T14:20:33.566Z,65.39
2023-04-06T14:23:04.616Z,63.96
2023-04-06T14:25:35.122Z,62.53
2023-04-06T14:28:02.334Z,64.58
2023-04-06T14:30:31.504Z,62.93
2023-04-06T14:32:59.554Z,64.44
2023-04-06T14:35:28.871Z,63.06
2023-04-06T14:37:57.849Z,62.83
2023-04-06T14:40:24.974Z,61.36
2023-04-06T14:42:53.301Z,62.49
2023-04-06T14:45:22.560Z,62.10
2023-04-06T14:47:49.699Z,63.22
2023-04-06T14:50:16.570Z,63.85
2023-04-06T14:52:47.297Z,65.59
2023-04-06T14:55:15.104Z,63.31
2023-04-06T14:57:41.609Z,63.92
2023-04-06T15:00:11.950Z,62.85
2023-04-06T15:02:39.256Z,64.03
2023-04-06T15:05:08.371Z,63.27
2023-04-06T15:07:35.022Z,61.94
2023-04-06T15:10:01.837Z,61.69
2023-04-06T15:12:30.678Z,61.69
2023-04-06T15:14:59.140Z,63.08
2023-04-06T15:17:27.557Z,61.08
2023-04-06T15:19:56.630Z,61.73
2023-04-06T15:22:23.425Z,61.63
2023-04-06T15:24:50.208Z,61.99
2023-04-06T15:27:16.791Z,62.71
2023-04-06T15:29:43.480Z,62.15
2023-04-06T15:32:10.852Z,62.79
2023-04-06T15:34:37.702Z,62.81
2023-04-06T15:37:06.400Z,62.34
2023-04-06T15:39:33.574Z,61.40
2023-04-06T15:42:01.171Z,61.50
2023-04-06T15:44:27.726Z,62.66
2023-04-06T15:46:54.460Z,61.65
2023-04-06T15:49:21.585Z,61.52
2023-04-06T15:51:51.877Z,61.86
2023-04-06T15:54:20.094Z,60.47
2023-04-06T15:56:47.507Z,59.79
2023-04-06T15:59:15.436Z,61.25
2023-04-06T16:01:43.582Z,60.11
2023-04-06T16:04:11.905Z,60.86
2023-04-06T16:06:38.776Z,59.23
2023-04-06T16:09:05.419Z,59.26
2023-04-06T16:11:34.548Z,59.46
2023-04-06T16:14:04.835Z,59.17
2023-04-06T16:16:31.737Z,59.66
2023-04-06T16:18:58.496Z,58.51
2023-04-06T16:21:27.953Z,58.20
2023-04-06T16:23:54.755Z,58.34
2023-04-06T16:26:22.408Z,58.38
2023-04-06T16:28:49.754Z,58.88
2023-04-06T16:31:24.200Z,59.71
2023-04-06T16:33:56.502Z,59.47
2023-04-06T16:36:28.042Z,60.15
2023-04-06T16:38:58.177Z,60.12
2023-04-06T16:41:27.573Z,58.67
2023-04-06T16:43:57.330Z,58.93
2023-04-06T16:46:36.279Z,58.19
2023-04-06T16:49:05.184Z,59.57
2023-04-06T16:51:33.291Z,59.85
2023-04-06T16:54:00.468Z,61.49
2023-04-06T16:56:28.512Z,59.23
2023-04-06T16:58:55.728Z,57.55
2023-04-06T17:01:25.478Z,55.27
2023-04-06T17:03:53.325Z,56.56
2023-04-06T17:06:20.700Z,57.58
2023-04-06T17:08:50.649Z,57.95
2023-04-06T17:11:20.285Z,59.33
2023-04-06T17:13:50.807Z,60.68
2023-04-06T17:16:18.270Z,59.96
2023-04-06T17:18:45.124Z,60.13
2023-04-06T17:21:15.552Z,60.09
2023-04-06T17:23:42.572Z,59.01
2023-04-06T17:26:09.336Z,60.52
2023-04-06T17:28:37.581Z,59.02
2023-04-06T17:31:11.131Z,57.46
2023-04-06T17:33:39.549Z,57.31
2023-04-06T17:36:08.020Z,57.14
2023-04-06T17:38:37.366Z,58.40
2023-04-06T17:41:08.207Z,56.79
2023-04-06T17:43:35.146Z,57.16
2023-04-06T17:46:01.924Z,56.93
2023-04-06T17:48:29.849Z,56.01
2023-04-06T17:50:56.550Z,55.69
2023-04-06T17:53:23.336Z,58.05
2023-04-06T17:55:50.072Z,56.85
2023-04-06T17:58:16.899Z,56.10
2023-04-06T18:00:43.768Z,55.70
2023-04-06T18:03:10.559Z,55.64
2023-04-06T18:05:39.623Z,55.31
2023-04-06T18:08:06.540Z,55.04
2023-04-06T18:10:39.084Z,54.33
2023-04-06T18:13:08.301Z,56.75
2023-04-06T18:15:36.527Z,56.90
2023-04-06T18:18:03.445Z,55.48
2023-04-06T18:20:31.620Z,55.50
2023-04-06T18:23:00.245Z,54.35
2023-04-06T18:25:27.797Z,53.32
2023-04-06T18:27:54.867Z,55.97
2023-04-06T18:30:21.791Z,55.67
2023-04-06T18:32:50.011Z,58.32
2023-04-06T18:35:24.684Z,55.51
2023-04-06T18:37:51.800Z,53.72
2023-04-06T18:40:38.740Z,55.61
2023-04-06T18:43:07.529Z,54.33
2023-04-06T18:45:35.707Z,54.90
2023-04-06T18:48:03.179Z,56.00
2023-04-06T18:50:29.890Z,54.99
2023-04-06T18:52:56.733Z,55.46
2023-04-06T18:55:23.921Z,55.58
2023-04-06T18:57:50.957Z,55.60
2023-04-06T19:00:17.911Z,54.93
2023-04-06T19:02:45.972Z,54.78
2023-04-06T19:05:13.730Z,55.43
2023-04-06T19:07:42.410Z,57.73
2023-04-06T19:10:10.678Z,55.12
2023-04-06T19:12:40.091Z,55.57
2023-04-06T19:15:08.097Z,57.13
2023-04-06T19:17:35.404Z,55.76
2023-04-06T19:20:02.716Z,54.94
2023-04-06T19:22:29.709Z,55.78
2023-04-06T19:25:00.867Z,56.20
2023-04-06T19:27:27.578Z,56.26
2023-04-06T19:29:54.391Z,56.51
2023-04-06T19:32:21.208Z,58.33
2023-04-06T19:34:48.752Z,56.44
2023-04-06T19:37:15.470Z,56.02
2023-04-06T19:39:44.245Z,55.31
2023-04-06T19:42:12.508Z,55.33
2023-04-06T19:44:41.257Z,54.28
2023-04-06T19:47:08.764Z,54.04
2023-04-06T19:49:35.530Z,55.56
2023-04-06T19:52:02.360Z,56.52
2023-04-06T19:54:29.674Z,55.42
2023-04-06T19:56:57.090Z,56.07
2023-04-06T19:59:23.718Z,57.08
2023-04-06T20:01:50.453Z,56.91
2023-04-06T20:04:17.343Z,59.05
2023-04-06T20:06:44.463Z,60.26
2023-04-06T20:09:12.094Z,62.52
2023-04-06T20:11:38.858Z,62.92
2023-04-06T20:14:06.060Z,61.14
2023-04-06T20:16:34.322Z,60.75
2023-04-06T20:19:01.384Z,59.42
2023-04-06T20:21:28.090Z,61.83
2023-04-06T20:23:54.984Z,61.13
2023-04-06T20:26:21.721Z,61.22
2023-04-06T20:28:48.672Z,59.89
2023-04-06T20:31:15.467Z,58.43
2023-04-06T20:33:42.074Z,59.61
2023-04-06T20:36:09.443Z,61.59
2023-04-06T20:38:36.299Z,60.59
2023-04-06T20:41:05.334Z,61.08
2023-04-06T20:43:32.525Z,60.91
2023-04-06T20:46:02.320Z,60.30
2023-04-06T20:48:33.558Z,62.07
2023-04-06T20:51:02.894Z,61.76
2023-04-06T20:53:29.705Z,62.20
2023-04-06T20:55:58.099Z,61.54
2023-04-06T20:58:24.717Z,62.39
2023-04-06T21:00:51.698Z,61.77
2023-04-06T21:03:18.708Z,62.09
2023-04-06T21:05:53.294Z,61.84
2023-04-06T21:08:20.043Z,62.32
2023-04-06T21:10:46.766Z,61.64
2023-04-06T21:13:13.780Z,62.39
2023-04-06T21:15:41.191Z,60.62
2023-04-06T21:18:08.288Z,60.92
2023-04-06T21:20:35.495Z,61.78
2023-04-06T21:23:03.828Z,61.07
2023-04-06T21:25:30.806Z,60.76
2023-04-06T21:27:57.658Z,59.98
2023-04-06T21:30:24.205Z,59.85
2023-04-06T21:32:50.826Z,60.42
2023-04-06T21:35:17.471Z,61.24
2023-04-06T21:37:44.156Z,60.54
2023-04-06T21:40:12.592Z,61.61
2023-04-06T21:42:39.229Z,62.09
2023-04-06T21:45:06.590Z,62.32
2023-04-06T21:47:35.171Z,61.94
2023-04-06T21:50:02.243Z,61.84
2023-04-06T21:52:29.188Z,61.71
2023-04-06T21:54:55.940Z,61.55
2023-04-06T21:57:22.589Z,61.51
2023-04-06T21:59:50.520Z,61.21
2023-04-06T22:02:17.225Z,63.50
2023-04-06T22:04:44.244Z,61.96
2023-04-06T22:07:11.343Z,60.94
2023-04-06T22:09:40.081Z,62.36
2023-04-06T22:12:06.922Z,62.66
2023-04-06T22:14:34.409Z,61.97
2023-04-06T22:17:01.106Z,61.33
2023-04-06T22:19:27.865Z,61.47
2023-04-06T22:21:54.513Z,61.55
2023-04-06T22:24:21.160Z,62.11
2023-04-06T22:26:48.483Z,61.64
2023-04-06T22:29:15.192Z,60.93
2023-04-06T22:31:41.890Z,60.51
2023-04-06T22:34:08.489Z,61.32
2023-04-06T22:36:35.368Z,60.67
2023-04-06T22:39:04.961Z,61.11
2023-04-06T22:41:50.959Z,61.29
2023-04-06T22:44:18.414Z,62.06
2023-04-06T22:46:45.588Z,62.24
2023-04-06T22:49:12.270Z,62.61
2023-04-06T22:51:41.888Z,62.52
2023-04-06T22:54:11.882Z,62.39
2023-04-06T22:56:38.532Z,61.23
2023-04-06T22:59:05.120Z,60.72
2023-04-06T23:01:31.877Z,60.44
2023-04-06T23:03:58.667Z,60.05
2023-04-06T23:06:27.372Z,60.74
2023-04-06T23:08:54.138Z,61.46
2023-04-06T23:11:21.456Z,60.94
2023-04-06T23:13:48.310Z,61.66
2023-04-06T23:16:15.074Z,60.70
2023-04-06T23:18:42.356Z,60.66
2023-04-06T23:21:09.016Z,61.28
2023-04-06T23:23:35.845Z,61.88
2023-04-06T23:26:03.219Z,61.70
2023-04-06T23:28:29.884Z,60.89
2023-04-06T23:30:56.822Z,60.29
2023-04-06T23:33:23.771Z,61.95
2023-04-06T23:35:51.110Z,61.02
2023-04-06T23:38:17.833Z,60.92
2023-04-06T23:40:44.456Z,60.62
2023-04-06T23:43:11.226Z,60.66
2023-04-06T23:45:42.550Z,60.23
2023-04-06T23:48:10.409Z,60.37
2023-04-06T23:50:37.541Z,60.30
2023-04-06T23:53:04.729Z,60.66
2023-04-06T23:55:32.382Z,60.46
2023-04-06T23:57:59.327Z,60.88
